Time;durP1;ratioP1;P1;durP2;ratioP2;P2;SDS_P1;SDS_P2;PMS_P1;PMS_P2;Temp;Humidity;BMP_temperature;BMP_pressure;BME280_temperature;BME280_humidity;BME280_pressure;Samples;Min_cycle;Max_cycle;Signal;HPM_P1;HPM_P2
2023/06/25 00:00:45;;;;;;;8.90;8.03;;;;;;;;;;5025025;28;20231;-47
2023/06/25 00:03:12;;;;;;;10.47;7.63;;;19.20;99.90;;;;;;5018061;28;20208;-54
2023/06/25 00:05:40;;;;;;;8.40;7.50;;;19.20;99.90;;;;;;5023601;28;20904;-51
2023/06/25 00:08:07;;;;;;;7.67;6.80;;;19.20;99.90;;;;;;5013913;28;20208;-56
2023/06/25 00:10:34;;;;;;;9.90;6.90;;;19.20;99.90;;;;;;5000891;28;20467;-49
2023/06/25 00:13:01;;;;;;;8.33;7.53;;;19.20;99.90;;;;;;5024765;28;20196;-56
2023/06/25 00:15:28;;;;;;;8.47;7.53;;;19.20;99.90;;;;;;5021656;28;20180;-49
2023/06/25 00:17:55;;;;;;;8.00;7.20;;;19.20;99.90;;;;;;5024273;28;20275;-52
2023/06/25 00:20:22;;;;;;;8.47;7.60;;;19.10;99.90;;;;;;5011262;28;20983;-50
2023/06/25 00:22:50;;;;;;;9.03;7.83;;;19.00;99.90;;;;;;5024035;28;20384;-48
2023/06/25 00:25:17;;;;;;;8.97;7.70;;;18.90;99.90;;;;;;5000010;28;20257;-54
2023/06/25 00:27:47;;;;;;;8.40;7.60;;;18.90;99.90;;;;;;5022651;28;20215;-48
2023/06/25 00:30:15;;;;;;;8.13;7.40;;;18.80;99.90;;;;;;5022215;28;20212;-53
2023/06/25 00:32:42;;;;;;;8.33;7.53;;;18.80;99.90;;;;;;5017598;28;20196;-52
2023/06/25 00:35:10;;;;;;;9.63;6.93;;;18.80;99.90;;;;;;5015995;28;20289;-55
2023/06/25 00:37:37;;;;;;;8.37;7.60;;;18.70;99.90;;;;;;5022827;28;20298;-52
2023/06/25 00:40:08;;;;;;;7.63;6.93;;;18.80;99.90;;;;;;5017022;28;20204;-54
2023/06/25 00:42:41;;;;;;;9.60;8.40;;;18.80;99.90;;;;;;5013232;28;20257;-49
2023/06/25 00:45:10;;;;;;;9.40;8.33;;;18.70;99.90;;;;;;5016530;28;20448;-54
2023/06/25 00:47:37;;;;;;;9.00;8.10;;;18.60;99.90;;;;;;5022141;28;20184;-47
2023/06/25 00:50:05;;;;;;;8.43;7.67;;;18.50;99.90;;;;;;5018142;28;20538;-55
2023/06/25 00:52:33;;;;;;;11.13;9.00;;;18.50;99.90;;;;;;5022246;28;20307;-50
2023/06/25 00:54:59;;;;;;;10.60;8.43;;;18.40;99.90;;;;;;5020978;28;20204;-53
2023/06/25 00:57:29;;;;;;;9.27;8.40;;;18.40;99.90;;;;;;4996304;28;20192;-51
2023/06/25 00:59:57;;;;;;;9.00;8.10;;;18.30;99.90;;;;;;5022708;28;20244;-54
2023/06/25 01:02:31;;;;;;;9.47;8.50;;;18.30;99.90;;;;;;5020051;28;20196;-50
2023/06/25 01:05:03;;;;;;;11.23;8.60;;;18.20;99.90;;;;;;5020202;28;20226;-53
2023/06/25 01:07:32;;;;;;;10.27;8.83;;;18.20;99.90;;;;;;5007102;28;20203;-55
2023/06/25 01:09:59;;;;;;;8.70;7.73;;;18.20;99.90;;;;;;5020247;28;20231;-54
2023/06/25 01:12:27;;;;;;;9.20;8.30;;;18.20;99.90;;;;;;5000690;28;20204;-50
2023/06/25 01:14:54;;;;;;;9.60;8.60;;;18.20;99.90;;;;;;5024263;28;20199;-55
2023/06/25 01:17:21;;;;;;;9.37;8.47;;;18.10;99.90;;;;;;5018560;28;20895;-51
2023/06/25 01:19:48;;;;;;;8.90;8.07;;;18.10;99.90;;;;;;5018596;28;20192;-53
2023/06/25 01:22:17;;;;;;;8.17;7.47;;;18.00;99.90;;;;;;5013973;28;20674;-55
2023/06/25 01:24:47;;;;;;;8.77;7.87;;;18.00;99.90;;;;;;5022856;28;20291;-53
2023/06/25 01:27:14;;;;;;;8.87;7.97;;;18.00;99.90;;;;;;4997004;28;20322;-56
2023/06/25 01:29:42;;;;;;;9.20;8.30;;;18.00;99.90;;;;;;5016552;28;20247;-55
2023/06/25 01:32:11;;;;;;;8.27;7.57;;;18.00;99.90;;;;;;5012974;28;20196;-54
2023/06/25 01:34:38;;;;;;;8.73;7.90;;;18.00;99.90;;;;;;5021617;28;20902;-52
2023/06/25 01:37:06;;;;;;;9.40;7.77;;;17.90;99.90;;;;;;5015611;28;20262;-54
2023/06/25 01:39:33;;;;;;;8.70;7.90;;;18.00;99.90;;;;;;5019492;28;20219;-49
2023/06/25 01:42:01;;;;;;;9.07;7.83;;;18.10;99.90;;;;;;5022258;28;20791;-52
2023/06/25 01:44:30;;;;;;;9.30;8.30;;;18.10;99.90;;;;;;4997372;28;20901;-52
2023/06/25 01:46:58;;;;;;;8.73;7.97;;;18.00;99.90;;;;;;5022067;28;20539;-48
2023/06/25 01:49:26;;;;;;;9.23;8.27;;;18.00;99.90;;;;;;5017591;28;20266;-49
2023/06/25 01:51:53;;;;;;;9.53;8.57;;;18.00;99.90;;;;;;5017469;28;20219;-49
2023/06/25 01:54:20;;;;;;;10.63;9.37;;;18.00;99.90;;;;;;5018581;28;20208;-54
2023/06/25 01:56:46;;;;;;;10.63;9.53;;;17.80;99.90;;;;;;5016396;28;20228;-51
2023/06/25 01:59:15;;;;;;;10.50;8.80;;;17.70;99.90;;;;;;4998254;28;20211;-56
2023/06/25 02:01:42;;;;;;;12.57;9.43;;;17.70;99.90;;;;;;5021467;28;20315;-52
2023/06/25 02:04:09;;;;;;;10.67;9.63;;;;;;;;;;5020921;28;20203;-55
2023/06/25 02:06:36;;;;;;;11.43;8.87;;;17.60;99.90;;;;;;5019528;28;20223;-53
2023/06/25 02:09:03;;;;;;;9.30;8.40;;;17.50;99.90;;;;;;5011162;28;20224;-54
2023/06/25 02:11:30;;;;;;;10.07;9.00;;;17.50;99.90;;;;;;5017942;28;21014;-48
2023/06/25 02:13:56;;;;;;;9.77;8.43;;;17.50;99.90;;;;;;5002931;28;20286;-52
2023/06/25 02:16:25;;;;;;;9.37;8.37;;;17.60;99.90;;;;;;5017556;28;20222;-48
2023/06/25 02:18:53;;;;;;;9.37;7.80;;;17.70;99.90;;;;;;5018453;28;20250;-56
2023/06/25 02:21:20;;;;;;;10.03;8.80;;;17.70;99.90;;;;;;5011693;28;20312;-53
2023/06/25 02:23:48;;;;;;;11.67;8.23;;;17.80;99.90;;;;;;5016923;28;20597;-48
2023/06/25 02:26:15;;;;;;;10.10;8.53;;;17.70;99.90;;;;;;5017047;28;20200;-54
2023/06/25 02:28:42;;;;;;;9.50;8.50;;;17.70;99.90;;;;;;5022210;28;20219;-48
2023/06/25 02:31:09;;;;;;;12.13;8.77;;;17.70;99.90;;;;;;4995207;28;20228;-55
2023/06/25 02:33:37;;;;;;;10.03;8.97;;;17.70;99.90;;;;;;5011867;28;20290;-50
2023/06/25 02:36:04;;;;;;;11.63;9.40;;;17.70;99.90;;;;;;5021759;28;20292;-55
2023/06/25 02:38:31;;;;;;;10.47;8.80;;;17.70;99.90;;;;;;5020022;28;20188;-52
2023/06/25 02:40:58;;;;;;;9.87;8.23;;;17.70;99.90;;;;;;5017097;28;20224;-51
2023/06/25 02:43:26;;;;;;;11.50;8.17;;;17.70;99.90;;;;;;5010701;28;20200;-52
2023/06/25 02:45:52;;;;;;;10.93;9.00;;;17.70;99.90;;;;;;4999529;28;20204;-49
2023/06/25 02:48:19;;;;;;;11.40;9.90;;;17.60;99.90;;;;;;5018411;28;20375;-55
2023/06/25 02:50:49;;;;;;;10.03;9.07;;;17.50;99.90;;;;;;5023758;28;20281;-54
2023/06/25 02:53:16;;;;;;;11.07;9.97;;;17.50;99.90;;;;;;5023696;28;20203;-55
2023/06/25 02:55:43;;;;;;;12.23;9.43;;;17.40;99.90;;;;;;5013385;28;20249;-49
2023/06/25 02:58:10;;;;;;;10.80;9.80;;;17.40;99.90;;;;;;5023929;28;20230;-54
2023/06/25 03:00:37;;;;;;;10.80;9.70;;;17.40;99.90;;;;;;5002153;28;20354;-47
2023/06/25 03:03:04;;;;;;;12.90;10.40;;;17.40;99.90;;;;;;5024083;28;20203;-56
2023/06/25 03:05:32;;;;;;;10.43;9.33;;;17.40;99.90;;;;;;5021733;28;20262;-52
2023/06/25 03:08:00;;;;;;;10.87;9.77;;;17.40;99.90;;;;;;5020027;28;20203;-51
2023/06/25 03:10:30;;;;;;;11.20;9.43;;;17.40;99.90;;;;;;5015714;28;21004;-48
2023/06/25 03:12:58;;;;;;;10.97;9.37;;;17.30;99.90;;;;;;5025107;28;20208;-51
2023/06/25 03:15:25;;;;;;;11.03;9.87;;;17.20;99.90;;;;;;5010523;28;20204;-53
2023/06/25 03:17:52;;;;;;;10.57;8.90;;;17.30;99.90;;;;;;4999045;28;20816;-55
2023/06/25 03:20:20;;;;;;;10.77;9.10;;;17.30;99.90;;;;;;5019188;28;20220;-50
2023/06/25 03:22:47;;;;;;;11.30;9.70;;;17.30;99.90;;;;;;5020794;28;20994;-54
2023/06/25 03:25:15;;;;;;;11.67;9.73;;;17.30;99.90;;;;;;5015576;28;20219;-50
2023/06/25 03:27:47;;;;;;;10.83;9.43;;;17.40;99.90;;;;;;5022587;28;20207;-51
2023/06/25 03:30:14;;;;;;;10.80;9.33;;;17.40;99.90;;;;;;5010186;28;20243;-54
2023/06/25 03:32:41;;;;;;;11.30;9.20;;;17.30;99.90;;;;;;5000179;28;20220;-51
2023/06/25 03:35:09;;;;;;;12.23;10.03;;;17.30;99.90;;;;;;5017597;28;20204;-54
2023/06/25 03:37:36;;;;;;;10.47;8.90;;;17.30;99.90;;;;;;5023098;28;20435;-54
2023/06/25 03:40:04;;;;;;;11.73;10.03;;;17.40;99.90;;;;;;5023201;28;20782;-56
2023/06/25 03:42:33;;;;;;;10.10;9.10;;;17.40;99.90;;;;;;5015975;28;20921;-55
2023/06/25 03:45:01;;;;;;;10.20;9.17;;;17.30;99.90;;;;;;5001441;28;20212;-53
2023/06/25 03:47:30;;;;;;;10.03;9.07;;;17.30;99.90;;;;;;4998268;28;20212;-55
2023/06/25 03:49:57;;;;;;;10.77;9.50;;;17.30;99.90;;;;;;5017554;28;20570;-49
2023/06/25 03:52:24;;;;;;;10.70;9.63;;;17.30;99.90;;;;;;5022211;28;20228;-51
2023/06/25 03:54:51;;;;;;;10.50;9.43;;;17.30;99.90;;;;;;5016914;28;20195;-53
2023/06/25 03:57:22;;;;;;;10.83;9.83;;;17.40;99.90;;;;;;5018198;28;20674;-51
2023/06/25 03:59:50;;;;;;;10.80;9.73;;;17.40;99.90;;;;;;5021873;28;20188;-50
2023/06/25 04:02:17;;;;;;;11.33;10.13;;;17.40;99.90;;;;;;5005939;28;20255;-54
2023/06/25 04:04:45;;;;;;;12.23;9.13;;;17.40;99.90;;;;;;4999097;28;20208;-50
2023/06/25 04:07:12;;;;;;;12.93;10.83;;;17.40;99.90;;;;;;5011403;28;20252;-52
2023/06/25 04:09:39;;;;;;;12.03;10.17;;;17.50;99.90;;;;;;5019321;28;20216;-50
2023/06/25 04:12:07;;;;;;;10.83;9.63;;;17.50;99.90;;;;;;5012416;28;20224;-49
2023/06/25 04:14:36;;;;;;;10.63;9.40;;;17.50;99.90;;;;;;5032522;28;20254;-49
2023/06/25 04:17:05;;;;;;;11.97;9.60;;;17.60;99.90;;;;;;5023824;28;20298;-46
2023/06/25 04:19:32;;;;;;;10.60;9.50;;;17.60;99.90;;;;;;4992736;28;20204;-51
2023/06/25 04:21:59;;;;;;;11.87;9.97;;;17.60;99.90;;;;;;5017079;28;20235;-47
2023/06/25 04:24:27;;;;;;;10.77;9.47;;;17.60;99.90;;;;;;5021475;28;20196;-52
2023/06/25 04:26:54;;;;;;;15.07;11.27;;;17.60;99.90;;;;;;5014870;28;20917;-49
2023/06/25 04:29:21;;;;;;;12.60;9.90;;;17.70;99.90;;;;;;5023498;28;20258;-55
2023/06/25 04:31:47;;;;;;;12.17;10.07;;;17.70;99.90;;;;;;5015046;28;20216;-51
2023/06/25 04:34:16;;;;;;;10.73;9.63;;;17.70;99.90;;;;;;5017372;28;20200;-51
2023/06/25 04:36:45;;;;;;;12.50;10.33;;;17.80;99.90;;;;;;4998720;28;20216;-48
2023/06/25 04:39:12;;;;;;;12.73;9.87;;;17.80;99.90;;;;;;5021377;28;20192;-49
2023/06/25 04:41:39;;;;;;;10.67;9.67;;;17.90;99.90;;;;;;5011995;28;20212;-55
2023/06/25 04:44:06;;;;;;;14.07;10.80;;;17.90;99.90;;;;;;5019140;28;20254;-50
2023/06/25 04:46:33;;;;;;;14.43;11.87;;;18.00;99.90;;;;;;5019659;28;20666;-57
2023/06/25 04:49:00;;;;;;;12.87;10.83;;;18.00;99.90;;;;;;5027172;28;20231;-50
2023/06/25 04:51:28;;;;;;;15.27;10.50;;;18.00;99.90;;;;;;4994254;28;20224;-54
2023/06/25 04:53:55;;;;;;;11.37;10.00;;;18.00;99.90;;;;;;5015737;28;20250;-57
2023/06/25 04:56:22;;;;;;;11.07;9.27;;;18.10;99.90;;;;;;5018247;28;20199;-57
2023/06/25 04:58:48;;;;;;;11.03;9.93;;;18.10;99.90;;;;;;5016343;28;20195;-50
2023/06/25 05:01:15;;;;;;;11.53;9.43;;;18.20;99.90;;;;;;5024220;28;20212;-51
2023/06/25 05:03:42;;;;;;;11.40;10.13;;;18.20;99.90;;;;;;5020314;28;20199;-51
2023/06/25 05:06:09;;;;;;;12.10;9.37;;;18.20;99.90;;;;;;4996210;28;20311;-56
2023/06/25 05:08:37;;;;;;;9.87;8.43;;;18.30;99.90;;;;;;5011142;28;20257;-51
2023/06/25 05:11:04;;;;;;;11.93;9.37;;;18.30;99.90;;;;;;5022962;28;20690;-55
2023/06/25 05:13:31;;;;;;;10.33;8.57;;;18.30;99.90;;;;;;5015396;28;20211;-56
2023/06/25 05:15:58;;;;;;;10.23;9.07;;;18.40;99.90;;;;;;5023022;28;20208;-49
2023/06/25 05:18:24;;;;;;;11.20;8.90;;;18.40;99.90;;;;;;5016912;28;20570;-55
2023/06/25 05:20:51;;;;;;;10.63;8.90;;;18.50;99.90;;;;;;4999029;28;20219;-51
2023/06/25 05:23:18;;;;;;;9.93;8.57;;;18.50;99.90;;;;;;5017064;28;20203;-52
2023/06/25 05:25:47;;;;;;;9.17;8.07;;;18.50;99.90;;;;;;5019906;28;21085;-50
2023/06/25 05:28:14;;;;;;;8.77;7.20;;;18.60;99.90;;;;;;5019442;28;20204;-50
2023/06/25 05:30:40;;;;;;;9.93;8.40;;;18.70;99.90;;;;;;5008346;28;21118;-50
2023/06/25 05:33:07;;;;;;;9.73;7.17;;;18.80;99.90;;;;;;5022757;28;20192;-52
2023/06/25 05:35:34;;;;;;;9.30;7.87;;;18.80;99.90;;;;;;5017433;28;20246;-56
2023/06/25 05:38:01;;;;;;;10.23;8.10;;;18.90;99.90;;;;;;5001998;28;20208;-48
2023/06/25 05:40:28;;;;;;;6.77;6.17;;;18.90;99.90;;;;;;5021217;28;20258;-52
2023/06/25 05:42:57;;;;;;;7.87;7.17;;;19.00;99.90;;;;;;5015866;28;20589;-49
2023/06/25 05:45:24;;;;;;;9.40;7.00;;;19.10;99.90;;;;;;5015953;28;20211;-55
2023/06/25 05:47:50;;;;;;;9.27;7.73;;;19.10;99.90;;;;;;5021653;28;20184;-51
2023/06/25 05:50:17;;;;;;;7.33;6.63;;;19.20;99.90;;;;;;5015241;28;20764;-54
2023/06/25 05:52:44;;;;;;;8.13;7.17;;;19.20;99.90;;;;;;4998620;28;20220;-53
2023/06/25 05:55:11;;;;;;;7.13;5.97;;;19.30;99.90;;;;;;5015371;28;20204;-50
2023/06/25 05:57:38;;;;;;;8.77;7.67;;;19.30;99.90;;;;;;5017042;28;20795;-49
2023/06/25 06:00:09;;;;;;;9.47;7.77;;;19.40;99.90;;;;;;5023483;28;20607;-53
2023/06/25 06:02:40;;;;;;;7.57;6.80;;;19.50;99.90;;;;;;5012150;28;20451;-52
2023/06/25 06:05:07;;;;;;;8.57;6.97;;;19.50;99.90;;;;;;5013045;28;20262;-51
2023/06/25 06:07:34;;;;;;;7.03;6.43;;;19.60;99.90;;;;;;5014680;28;20218;-52
2023/06/25 06:10:01;;;;;;;7.77;6.80;;;19.70;99.90;;;;;;4998640;28;20212;-55
2023/06/25 06:12:27;;;;;;;7.03;6.33;;;19.80;99.90;;;;;;4998180;28;20301;-56
2023/06/25 06:14:55;;;;;;;6.63;6.03;;;19.90;99.90;;;;;;5020438;28;20274;-56
2023/06/25 06:17:23;;;;;;;8.20;6.43;;;19.90;99.90;;;;;;5007065;28;20231;-56
2023/06/25 06:19:50;;;;;;;7.67;5.83;;;20.00;99.90;;;;;;5014344;28;20257;-49
2023/06/25 06:22:17;;;;;;;7.43;6.73;;;20.10;99.90;;;;;;5021662;28;20196;-54
2023/06/25 06:24:44;;;;;;;7.07;6.30;;;20.20;99.90;;;;;;4997391;28;20208;-53
2023/06/25 06:27:12;;;;;;;6.17;5.57;;;20.20;99.90;;;;;;5019305;28;20204;-56
2023/06/25 06:29:39;;;;;;;10.20;6.00;;;20.30;99.90;;;;;;5019204;28;20216;-56
2023/06/25 06:32:07;;;;;;;7.10;6.40;;;20.40;99.90;;;;;;5016070;28;20273;-50
2023/06/25 06:34:35;;;;;;;6.83;6.13;;;20.50;99.90;;;;;;5013473;28;20203;-54
2023/06/25 06:37:02;;;;;;;6.67;6.07;;;20.50;99.90;;;;;;5009379;28;20235;-57
2023/06/25 06:39:30;;;;;;;6.73;5.80;;;20.60;99.90;;;;;;5001158;28;20219;-51
2023/06/25 06:41:57;;;;;;;7.10;6.40;;;20.70;99.90;;;;;;5006468;28;20254;-53
2023/06/25 06:44:25;;;;;;;6.67;6.07;;;20.70;99.90;;;;;;5020196;28;20199;-52
2023/06/25 06:46:52;;;;;;;6.20;5.57;;;20.80;99.90;;;;;;5024140;28;20282;-55
2023/06/25 06:49:19;;;;;;;6.37;5.77;;;20.90;99.90;;;;;;5005847;28;20395;-55
2023/06/25 06:51:48;;;;;;;6.53;5.50;;;21.00;99.90;;;;;;5022892;28;20224;-51
2023/06/25 06:54:15;;;;;;;7.37;6.03;;;21.10;99.90;;;;;;4994151;28;22547;-49
2023/06/25 06:56:41;;;;;;;6.77;6.07;;;21.10;99.90;;;;;;5023545;28;20196;-53
2023/06/25 06:59:08;;;;;;;9.27;6.10;;;21.20;99.90;;;;;;5013860;28;20621;-54
2023/06/25 07:01:35;;;;;;;6.67;6.07;;;21.20;99.90;;;;;;5022170;28;20274;-53
2023/06/25 07:04:03;;;;;;;6.30;5.70;;;21.30;99.90;;;;;;5013524;28;20214;-51
2023/06/25 07:06:30;;;;;;;7.07;5.20;;;21.30;99.90;;;;;;5018278;28;20257;-50
2023/06/25 07:08:59;;;;;;;6.77;5.93;;;21.40;99.90;;;;;;5023520;28;20295;-50
2023/06/25 07:11:25;;;;;;;6.23;5.00;;;21.50;99.90;;;;;;5000837;28;20215;-52
2023/06/25 07:13:52;;;;;;;5.70;5.07;;;21.60;99.90;;;;;;5018951;28;20701;-54
2023/06/25 07:16:19;;;;;;;5.23;4.63;;;21.70;99.90;;;;;;5019376;28;20238;-56
2023/06/25 07:18:46;;;;;;;5.57;5.07;;;21.80;99.90;;;;;;5019950;28;20222;-52
2023/06/25 07:21:13;;;;;;;5.50;5.03;;;21.90;99.90;;;;;;5010307;28;20278;-51
2023/06/25 07:23:40;;;;;;;6.33;4.90;;;21.90;99.90;;;;;;5023205;28;20192;-54
2023/06/25 07:26:09;;;;;;;5.20;4.70;;;21.90;99.90;;;;;;4998752;28;20208;-53
2023/06/25 07:28:36;;;;;;;5.57;5.07;;;22.10;99.90;;;;;;5013135;28;20208;-54
2023/06/25 07:31:02;;;;;;;5.13;4.72;;;22.10;99.90;;;;;;5015761;28;20224;-53
2023/06/25 07:33:29;;;;;;;5.13;4.43;;;22.20;99.90;;;;;;5023840;28;20208;-49
2023/06/25 07:35:56;;;;;;;5.00;4.60;;;22.30;99.90;;;;;;5013562;28;20204;-47
2023/06/25 07:38:23;;;;;;;4.88;4.47;;;22.40;99.90;;;;;;5020494;28;20207;-54
2023/06/25 07:40:50;;;;;;;4.82;4.43;;;22.50;99.90;;;;;;5022280;28;20212;-49
2023/06/25 07:43:18;;;;;;;5.10;4.70;;;22.60;99.90;;;;;;4999463;28;20210;-49
2023/06/25 07:45:45;;;;;;;6.38;4.30;;;22.60;99.90;;;;;;5018238;28;20211;-47
2023/06/25 07:48:12;;;;;;;4.95;4.50;;;22.70;99.90;;;;;;5019567;28;20199;-47
2023/06/25 07:50:39;;;;;;;5.00;4.43;;;22.80;99.90;;;;;;5015730;28;20224;-52
2023/06/25 07:53:06;;;;;;;4.68;4.28;;;22.90;99.90;;;;;;5018477;28;20196;-51
2023/06/25 07:55:39;;;;;;;5.72;5.15;;;22.90;99.90;;;;;;5021918;28;20192;-53
2023/06/25 07:58:06;;;;;;;5.13;4.72;;;23.00;99.90;;;;;;5000096;28;20219;-49
2023/06/25 08:00:34;;;;;;;5.30;4.80;;;23.10;99.90;;;;;;5016401;28;20216;-47
2023/06/25 08:03:02;;;;;;;6.03;5.20;;;23.20;99.90;;;;;;5021194;28;20212;-55
2023/06/25 08:05:28;;;;;;;6.57;5.32;;;23.30;99.90;;;;;;5006637;28;21344;-47
2023/06/25 08:07:57;;;;;;;5.75;5.15;;;23.30;99.90;;;;;;5022758;28;20204;-48
2023/06/25 08:10:24;;;;;;;5.70;5.15;;;23.30;99.90;;;;;;5022538;28;20305;-49
2023/06/25 08:12:52;;;;;;;5.65;5.15;;;23.40;99.90;;;;;;5021192;28;20196;-45
2023/06/25 08:15:20;;;;;;;7.13;4.57;;;23.60;99.90;;;;;;4998792;28;20211;-46
2023/06/25 08:17:48;;;;;;;5.45;4.95;;;23.60;99.90;;;;;;5019136;28;20676;-47
2023/06/25 08:20:15;;;;;;;8.88;5.45;;;23.80;99.90;;;;;;5013021;28;20709;-46
2023/06/25 08:22:42;;;;;;;5.97;5.50;;;23.90;99.90;;;;;;5012827;28;20572;-52
2023/06/25 08:25:20;;;;;;;8.15;5.57;;;23.80;99.90;;;;;;5015827;28;20215;-52
2023/06/25 08:27:47;;;;;;;5.95;5.47;;;23.90;99.90;;;;;;5016173;28;20192;-46
2023/06/25 08:30:14;;;;;;;7.20;5.72;;;24.00;99.90;;;;;;4992809;28;20231;-51
2023/06/25 08:32:41;;;;;;;6.97;5.70;;;24.00;99.90;;;;;;5020777;28;20761;-48
2023/06/25 08:35:09;;;;;;;6.28;5.65;;;24.10;99.90;;;;;;5018197;28;20208;-47
2023/06/25 08:37:36;;;;;;;6.93;6.20;;;24.20;99.90;;;;;;5013554;28;20958;-44
2023/06/25 08:40:04;;;;;;;7.65;6.28;;;24.30;99.90;;;;;;5025114;28;20270;-46
2023/06/25 08:42:31;;;;;;;7.00;6.40;;;24.30;99.90;;;;;;5010162;28;20905;-51
2023/06/25 08:44:58;;;;;;;6.57;5.88;;;24.40;99.90;;;;;;4998249;28;20220;-48
2023/06/25 08:47:27;;;;;;;6.57;5.97;;;24.40;99.90;;;;;;5013390;28;20674;-46
2023/06/25 08:49:56;;;;;;;6.32;5.72;;;24.50;99.90;;;;;;5019302;28;20196;-46
2023/06/25 08:52:25;;;;;;;7.38;6.35;;;24.70;99.90;;;;;;5005686;28;20204;-46
2023/06/25 08:54:54;;;;;;;7.38;6.65;;;24.80;99.90;;;;;;5016988;28;20802;-51
2023/06/25 08:57:23;;;;;;;9.80;6.90;;;24.80;99.90;;;;;;5012914;28;20673;-49
2023/06/25 08:59:49;;;;;;;6.88;6.28;;;24.70;99.90;;;;;;5005058;28;20204;-50
2023/06/25 09:02:16;;;;;;;8.05;6.47;;;24.70;99.90;;;;;;5016927;28;20261;-44
2023/06/25 09:04:46;;;;;;;6.53;5.90;;;24.80;99.90;;;;;;5017507;28;20253;-50
2023/06/25 09:07:15;;;;;;;6.75;6.15;;;24.80;99.90;;;;;;5011321;28;20211;-46
2023/06/25 09:09:44;;;;;;;7.05;6.05;;;24.90;99.90;;;;;;5015493;28;20219;-48
2023/06/25 09:12:12;;;;;;;7.80;7.07;;;25.10;99.90;;;;;;5022228;28;20219;-47
2023/06/25 09:14:39;;;;;;;7.55;6.75;;;25.20;99.90;;;;;;5016873;28;20192;-52
2023/06/25 09:17:06;;;;;;;8.38;7.35;;;25.20;99.90;;;;;;4998997;28;20291;-47
2023/06/25 09:19:35;;;;;;;14.68;6.95;;;25.20;99.90;;;;;;5010481;28;20339;-50
2023/06/25 09:22:02;;;;;;;7.60;6.47;;;25.20;99.90;;;;;;5019267;28;20332;-52
2023/06/25 09:24:29;;;;;;;7.72;6.93;;;25.20;99.70;;;;;;5012762;28;20207;-49
2023/06/25 09:26:57;;;;;;;7.43;6.63;;;25.20;99.10;;;;;;5013055;28;20212;-51
2023/06/25 09:29:24;;;;;;;6.70;6.10;;;25.20;99.30;;;;;;5006334;28;20195;-46
2023/06/25 09:31:51;;;;;;;7.78;6.30;;;25.30;99.80;;;;;;5004251;28;20239;-51
2023/06/25 09:34:19;;;;;;;7.90;7.10;;;25.40;99.90;;;;;;5018529;28;20208;-46
2023/06/25 09:36:46;;;;;;;88.85;12.82;;;25.60;99.30;;;;;;5022975;28;20671;-46
2023/06/25 09:39:14;;;;;;;10.30;7.00;;;25.60;99.00;;;;;;5013852;28;20629;-44
2023/06/25 09:41:42;;;;;;;28.67;7.38;;;25.60;98.80;;;;;;5008539;28;20244;-48
2023/06/25 09:44:11;;;;;;;24.90;7.93;;;25.60;98.80;;;;;;5013421;28;20224;-48
2023/06/25 09:46:39;;;;;;;11.88;7.68;;;25.80;98.90;;;;;;5000671;28;20357;-47
2023/06/25 09:49:07;;;;;;;32.25;8.73;;;25.80;98.10;;;;;;5019700;28;20200;-48
2023/06/25 09:51:41;;;;;;;17.75;8.02;;;25.70;98.30;;;;;;5016282;28;20215;-44
2023/06/25 09:54:10;;;;;;;9.13;8.20;;;25.60;98.40;;;;;;5012602;28;20291;-47
2023/06/25 09:56:39;;;;;;;10.45;7.07;;;25.60;97.90;;;;;;5016724;28;20330;-46
2023/06/25 09:59:06;;;;;;;7.45;6.53;;;25.50;98.10;;;;;;5020278;28;20196;-44
2023/06/25 10:01:35;;;;;;;10.23;6.90;;;25.50;98.30;;;;;;5002982;28;20306;-44
2023/06/25 10:04:03;;;;;;;8.70;6.43;;;25.70;98.00;;;;;;5017892;28;20230;-44
2023/06/25 10:06:30;;;;;;;13.32;7.68;;;25.80;98.00;;;;;;5016565;28;20196;-49
2023/06/25 10:08:59;;;;;;;7.57;6.88;;;25.90;97.80;;;;;;5021280;28;20235;-50
2023/06/25 10:11:26;;;;;;;7.93;7.13;;;25.90;97.70;;;;;;5006704;28;20231;-49
2023/06/25 10:13:54;;;;;;;7.53;6.93;;;25.90;97.90;;;;;;5014839;28;20192;-50
2023/06/25 10:16:21;;;;;;;11.23;7.47;;;26.00;98.10;;;;;;5008809;28;20246;-47
2023/06/25 10:18:54;;;;;;;7.18;6.57;;;26.10;98.20;;;;;;5003301;28;20237;-45
2023/06/25 10:21:23;;;;;;;7.22;6.63;;;26.20;97.50;;;;;;5016515;28;20212;-47
2023/06/25 10:24:00;;;;;;;6.80;6.25;;;26.30;97.20;;;;;;5016430;28;20616;-46
2023/06/25 10:26:29;;;;;;;8.18;6.15;;;26.30;96.70;;;;;;5016704;28;20661;-45
2023/06/25 10:28:59;;;;;;;6.53;6.00;;;26.40;96.80;;;;;;5003967;28;20939;-47
2023/06/25 10:31:26;;;;;;;6.82;6.22;;;26.40;96.60;;;;;;5013762;28;20216;-50
2023/06/25 10:34:05;;;;;;;17.02;7.75;;;26.40;96.50;;;;;;5001987;28;20211;-47
2023/06/25 10:36:32;;;;;;;27.67;9.50;;;26.50;96.10;;;;;;5017705;28;20223;-50
2023/06/25 10:38:59;;;;;;;9.70;7.68;;;26.50;95.80;;;;;;5020291;28;20211;-44
2023/06/25 10:41:27;;;;;;;7.00;6.13;;;26.50;95.90;;;;;;5006642;28;20303;-50
2023/06/25 10:43:55;;;;;;;7.82;6.80;;;26.60;96.50;;;;;;5019167;28;20570;-45
2023/06/25 10:46:29;;;;;;;7.13;6.53;;;26.70;95.60;;;;;;5013710;28;20210;-46
2023/06/25 10:48:56;;;;;;;7.68;6.97;;;26.70;94.70;;;;;;5006622;28;20212;-46
2023/06/25 10:51:25;;;;;;;6.80;6.30;;;26.60;94.40;;;;;;5016555;28;20231;-49
2023/06/25 10:53:54;;;;;;;7.00;6.40;;;26.60;94.10;;;;;;5011329;28;20200;-52
2023/06/25 10:56:21;;;;;;;6.57;5.93;;;26.70;93.90;;;;;;5014646;28;20582;-46
2023/06/25 10:58:55;;;;;;;6.65;6.15;;;26.70;93.80;;;;;;5012268;28;20659;-48
2023/06/25 11:01:22;;;;;;;7.45;6.85;;;26.80;93.70;;;;;;5009721;28;20224;-48
2023/06/25 11:03:49;;;;;;;6.38;5.78;;;26.80;93.40;;;;;;4993412;28;20184;-47
2023/06/25 11:06:17;;;;;;;6.47;5.80;;;26.90;93.80;;;;;;5014345;28;20200;-47
2023/06/25 11:08:47;;;;;;;6.10;5.70;;;27.00;93.20;;;;;;5015776;28;20200;-49
2023/06/25 11:11:14;;;;;;;5.82;5.30;;;27.10;93.00;;;;;;5010926;28;20330;-50
2023/06/25 11:13:41;;;;;;;7.57;6.88;;;27.20;92.90;;;;;;5021500;28;20196;-47
2023/06/25 11:16:08;;;;;;;7.25;6.75;;;27.30;93.00;;;;;;5010202;28;21775;-46
2023/06/25 11:18:36;;;;;;;7.47;6.88;;;27.30;93.40;;;;;;5006722;28;20224;-48
2023/06/25 11:21:05;;;;;;;6.97;5.72;;;27.30;93.40;;;;;;5013800;28;20281;-50
2023/06/25 11:23:33;;;;;;;65.50;11.40;;;27.30;93.60;;;;;;5017780;28;20206;-49
2023/06/25 11:26:06;;;;;;;10.68;6.35;;;27.30;93.60;;;;;;5011500;28;20208;-48
2023/06/25 11:28:37;;;;;;;7.63;6.22;;;27.40;93.30;;;;;;5019861;28;20194;-49
2023/06/25 11:31:04;;;;;;;14.10;6.65;;;27.40;93.60;;;;;;5011962;28;20228;-42
2023/06/25 11:33:32;;;;;;;7.10;6.50;;;27.50;94.00;;;;;;5019742;28;20713;-47
2023/06/25 11:36:10;;;;;;;45.05;9.38;;;27.50;93.30;;;;;;5003576;28;20192;-48
2023/06/25 11:38:37;;;;;;;6.28;5.78;;;27.50;93.30;;;;;;5021339;28;20233;-48
2023/06/25 11:41:07;;;;;;;7.47;6.90;;;27.50;92.90;;;;;;5018583;28;20212;-48
2023/06/25 11:43:34;;;;;;;9.25;8.45;;;27.60;93.30;;;;;;5013805;28;20294;-43
2023/06/25 11:46:03;;;;;;;7.72;7.13;;;27.70;92.90;;;;;;5012511;28;20211;-50
2023/06/25 11:48:30;;;;;;;8.48;7.68;;;27.90;93.40;;;;;;5018589;28;20296;-48
2023/06/25 11:51:05;;;;;;;6.35;5.85;;;28.00;92.30;;;;;;4998838;28;20322;-49
2023/06/25 11:53:33;;;;;;;7.50;6.82;;;28.10;92.30;;;;;;5021575;28;20199;-49
2023/06/25 11:56:01;;;;;;;6.38;5.78;;;28.10;92.00;;;;;;5021183;28;20188;-50
2023/06/25 11:58:29;;;;;;;6.40;5.80;;;27.90;91.30;;;;;;5014086;28;20204;-50
2023/06/25 12:00:56;;;;;;;6.63;6.05;;;27.70;91.40;;;;;;5010840;28;20274;-51
2023/06/25 12:03:24;;;;;;;6.30;5.85;;;27.80;91.50;;;;;;5010444;28;20767;-52
2023/06/25 12:05:51;;;;;;;5.85;5.35;;;27.90;90.70;;;;;;4997587;28;20207;-50
2023/06/25 12:08:18;;;;;;;5.88;5.47;;;27.90;91.00;;;;;;5018892;28;20269;-51
2023/06/25 12:10:45;;;;;;;6.40;5.75;;;27.80;91.10;;;;;;5016146;28;20653;-47
2023/06/25 12:13:12;;;;;;;5.00;4.65;;;27.90;91.40;;;;;;5023005;28;20212;-49
2023/06/25 12:15:41;;;;;;;5.70;5.20;;;28.00;91.20;;;;;;5002201;28;20262;-47
2023/06/25 12:18:08;;;;;;;5.50;5.10;;;28.20;91.10;;;;;;5014216;28;20223;-45
2023/06/25 12:20:35;;;;;;;5.10;4.70;;;28.30;90.00;;;;;;5011272;28;20220;-43
2023/06/25 12:23:02;;;;;;;6.00;5.60;;;28.40;89.70;;;;;;5008122;28;20199;-52
2023/06/25 12:25:29;;;;;;;5.68;5.18;;;28.40;89.10;;;;;;5020406;28;20192;-48
2023/06/25 12:27:56;;;;;;;6.05;5.45;;;28.50;90.80;;;;;;5011875;28;20185;-51
2023/06/25 12:30:23;;;;;;;5.32;4.82;;;28.50;89.50;;;;;;5015660;28;20953;-48
2023/06/25 12:32:52;;;;;;;5.32;4.82;;;28.50;90.10;;;;;;5014656;28;20226;-47
2023/06/25 12:35:19;;;;;;;6.15;5.65;;;28.90;90.30;;;;;;5014435;28;20689;-49
2023/06/25 12:37:46;;;;;;;7.97;5.28;;;29.10;91.00;;;;;;5003740;28;20204;-49
2023/06/25 12:40:13;;;;;;;5.07;4.68;;;29.20;89.40;;;;;;5013679;28;20564;-47
2023/06/25 12:42:40;;;;;;;6.32;5.00;;;29.10;88.60;;;;;;5020538;28;20200;-47
2023/06/25 12:45:08;;;;;;;4.18;3.97;;;29.20;88.60;;;;;;5009795;28;23649;-52